Time;durP1;ratioP1;P1;durP2;ratioP2;P2;SDS_P1;SDS_P2;PMS_P1;PMS_P2;Temp;Humidity;BMP_temperature;BMP_pressure;BME280_temperature;BME280_humidity;BME280_pressure;Samples;Min_cycle;Max_cycle;Signal;HPM_P1;HPM_P2
2021/06/11 00:01:56;;;;;;;6.32;4.55;;;;;;;;;;5111493;28;20039;-73
2021/06/11 00:04:23;;;;;;;8.80;4.25;;;;;;;;;;5110774;28;20055;-72
2021/06/11 00:06:49;;;;;;;8.25;4.70;;;;;;;;;;5111406;28;20078;-73
2021/06/11 00:09:15;;;;;;;8.38;4.78;;;;;;;;;;5111654;28;20373;-73
2021/06/11 00:11:41;;;;;;;7.95;4.90;;;;;;;;;;5111400;28;20444;-70
2021/06/11 00:14:08;;;;;;;6.35;3.80;;;;;;;;;;5110951;28;20081;-74
2021/06/11 00:16:34;;;;;;;10.05;4.82;;;;;;;;;;5110940;28;20473;-71
2021/06/11 00:19:00;;;;;;;14.05;6.15;;;;;;;;;;5110882;28;20034;-72
2021/06/11 00:21:26;;;;;;;11.20;4.88;;;;;;;;;;5097919;28;20032;-72
2021/06/11 00:23:53;;;;;;;11.02;4.82;;;;;;;;;;5090773;28;20040;-71
2021/06/11 00:26:19;;;;;;;5.93;3.78;;;;;;;;;;5096768;28;20122;-71
2021/06/11 00:28:45;;;;;;;9.90;4.90;;;;;;;;;;5094378;28;20027;-72
2021/06/11 00:31:12;;;;;;;6.32;4.28;;;;;;;;;;5092245;28;20077;-72
2021/06/11 00:33:38;;;;;;;6.93;4.47;;;;;;;;;;5110787;28;20024;-72
2021/06/11 00:36:04;;;;;;;8.90;4.75;;;;;;;;;;5088969;28;20456;-70
2021/06/11 00:38:34;;;;;;;11.23;5.70;;;;;;;;;;5109829;28;20034;-72
2021/06/11 00:41:00;;;;;;;8.70;4.95;;;;;;;;;;5093998;28;20078;-71
2021/06/11 00:43:26;;;;;;;10.48;4.70;;;;;;;;;;5090090;28;20031;-72
2021/06/11 00:45:53;;;;;;;7.90;4.50;;;;;;;;;;5090145;28;20103;-72
2021/06/11 00:48:19;;;;;;;9.40;4.35;;;;;;;;;;5089978;28;20024;-72
2021/06/11 00:50:45;;;;;;;14.68;5.10;;;;;;;;;;5097823;28;20034;-71
2021/06/11 00:53:11;;;;;;;8.10;4.78;;;;;;;;;;5110139;28;20024;-72
2021/06/11 00:55:43;;;;;;;8.50;4.57;;;;;;;;;;5095462;28;21471;-73
2021/06/11 00:58:10;;;;;;;8.98;4.63;;;;;;;;;;5089827;28;20077;-72
2021/06/11 01:00:36;;;;;;;14.30;4.95;;;;;;;;;;5090536;28;20031;-72
2021/06/11 01:03:02;;;;;;;11.68;5.75;;;;;;;;;;5095851;28;20086;-73
2021/06/11 01:05:28;;;;;;;7.75;5.53;;;;;;;;;;5094552;28;20040;-72
2021/06/11 01:07:54;;;;;;;7.93;4.32;;;;;;;;;;5105808;28;20479;-72
2021/06/11 01:10:21;;;;;;;8.05;5.00;;;;;;;;;;5107748;28;20035;-72
2021/06/11 01:12:47;;;;;;;10.27;4.90;;;;;;;;;;5092298;28;20673;-71
2021/06/11 01:15:14;;;;;;;10.90;5.20;;;;;;;;;;5089817;28;20036;-71
2021/06/11 01:17:40;;;;;;;7.90;4.60;;;;;;;;;;5090653;28;20155;-71
2021/06/11 01:20:08;;;;;;;8.45;4.35;;;;;;;;;;5089431;28;20630;-73
2021/06/11 01:22:37;;;;;;;9.20;4.63;;;;;;;;;;5098176;28;20491;-71
2021/06/11 01:25:07;;;;;;;10.27;5.20;;;;;;;;;;5089674;28;20474;-71
2021/06/11 01:27:34;;;;;;;9.32;4.50;;;;;;;;;;5099361;28;20058;-72
2021/06/11 01:30:05;;;;;;;9.27;4.82;;;;;;;;;;5089283;28;20434;-73
2021/06/11 01:32:34;;;;;;;8.98;4.00;;;;;;;;;;5093212;28;20027;-73
2021/06/11 01:35:02;;;;;;;8.93;4.90;;;;;;;;;;5089105;28;20028;-71
2021/06/11 01:37:32;;;;;;;11.65;5.35;;;;;;;;;;5089221;28;20063;-72
2021/06/11 01:40:00;;;;;;;11.18;4.60;;;;;;;;;;5089258;28;20031;-72
2021/06/11 01:42:27;;;;;;;13.00;5.90;;;;;;;;;;5101849;28;20043;-72
2021/06/11 01:44:54;;;;;;;11.45;4.97;;;;;;;;;;5102954;28;20555;-73
2021/06/11 01:47:21;;;;;;;10.05;5.75;;;;;;;;;;5104105;28;20031;-72
2021/06/11 01:49:47;;;;;;;13.27;5.05;;;;;;;;;;5109594;28;20137;-72
2021/06/11 01:52:14;;;;;;;8.68;4.07;;;;;;;;;;5092874;28;20028;-72
2021/06/11 01:54:42;;;;;;;8.48;4.93;;;;;;;;;;5095683;28;20024;-72
2021/06/11 01:57:09;;;;;;;9.50;5.43;;;;;;;;;;5091297;28;20486;-73
2021/06/11 01:59:35;;;;;;;7.07;4.63;;;;;;;;;;5097336;28;20088;-72
2021/06/11 02:02:02;;;;;;;7.18;4.75;;;;;;;;;;5105797;28;20043;-72
2021/06/11 02:04:30;;;;;;;11.65;5.00;;;;;;;;;;5108730;28;20031;-73
2021/06/11 02:06:56;;;;;;;9.73;4.75;;;;;;;;;;5093056;28;20032;-73
2021/06/11 02:09:23;;;;;;;8.25;4.47;;;;;;;;;;5107552;28;20023;-71
2021/06/11 02:11:50;;;;;;;8.68;5.05;;;;;;;;;;5107431;28;20499;-71
2021/06/11 02:14:17;;;;;;;7.80;5.25;;;;;;;;;;5092300;28;20024;-71
2021/06/11 02:16:44;;;;;;;13.70;4.85;;;;;;;;;;5070318;28;20048;-71
2021/06/11 02:19:10;;;;;;;8.93;4.57;;;;;;;;;;5096888;28;20119;-73
2021/06/11 02:21:38;;;;;;;6.55;4.30;;;;;;;;;;5106940;28;20043;-70
2021/06/11 02:24:05;;;;;;;8.18;4.32;;;;;;;;;;5099559;28;20051;-72
2021/06/11 02:26:32;;;;;;;10.65;4.32;;;;;;;;;;5088952;28;20047;-73
2021/06/11 02:28:58;;;;;;;8.50;4.60;;;;;;;;;;5088782;28;20108;-71
2021/06/11 02:31:24;;;;;;;9.02;5.80;;;;;;;;;;5088539;28;20043;-72
2021/06/11 02:33:51;;;;;;;7.82;4.60;;;;;;;;;;5094224;28;20028;-70
2021/06/11 02:36:17;;;;;;;8.05;4.63;;;;;;;;;;5098354;28;20111;-73
2021/06/11 02:38:43;;;;;;;9.43;4.75;;;;;;;;;;5101764;28;20145;-72
2021/06/11 02:41:11;;;;;;;7.72;4.57;;;;;;;;;;5088539;28;20475;-71
2021/06/11 02:43:40;;;;;;;9.93;4.35;;;;;;;;;;5088714;28;20078;-70
2021/06/11 02:46:09;;;;;;;8.18;5.32;;;;;;;;;;5088705;28;20024;-72
2021/06/11 02:48:38;;;;;;;8.88;5.07;;;;;;;;;;5088418;28;20554;-70
2021/06/11 02:51:12;;;;;;;12.68;5.00;;;;;;;;;;5129806;28;20027;-72
2021/06/11 02:53:41;;;;;;;7.88;4.63;;;;;;;;;;5117689;27;20081;-70
2021/06/11 02:56:13;;;;;;;11.75;5.10;;;;;;;;;;5112802;28;20068;-71
2021/06/11 02:58:44;;;;;;;9.23;4.47;;;;;;;;;;5113015;28;20104;-72
2021/06/11 03:01:11;;;;;;;10.27;5.43;;;;;;;;;;5113263;28;20031;-72
2021/06/11 03:03:39;;;;;;;6.75;4.25;;;;;;;;;;5112588;28;20028;-71
2021/06/11 03:06:05;;;;;;;7.78;4.93;;;;;;;;;;5112922;28;20024;-71
2021/06/11 03:08:34;;;;;;;9.55;4.72;;;;;;;;;;5111099;28;20098;-72
2021/06/11 03:11:04;;;;;;;10.23;5.07;;;;;;;;;;5092697;28;20092;-72
2021/06/11 03:13:31;;;;;;;7.35;4.78;;;;;;;;;;5111957;28;20034;-72
2021/06/11 03:15:58;;;;;;;8.85;5.25;;;;;;;;;;5091961;28;20047;-71
2021/06/11 03:18:29;;;;;;;10.20;4.90;;;;;;;;;;5092211;28;20501;-73
2021/06/11 03:20:57;;;;;;;9.02;4.60;;;;;;;;;;5109501;28;20034;-71
2021/06/11 03:23:26;;;;;;;8.82;4.45;;;;;;;;;;5112251;28;20024;-72
2021/06/11 03:25:55;;;;;;;9.15;4.20;;;;;;;;;;5111867;28;20028;-71
2021/06/11 03:28:25;;;;;;;13.23;5.35;;;;;;;;;;5092445;28;20027;-73
2021/06/11 03:30:53;;;;;;;8.43;5.03;;;;;;;;;;5091931;28;20024;-73
2021/06/11 03:33:20;;;;;;;10.00;5.03;;;;;;;;;;5091683;28;20541;-72
2021/06/11 03:35:55;;;;;;;10.48;4.75;;;;;;;;;;5091431;28;20024;-72
2021/06/11 03:38:23;;;;;;;7.93;4.68;;;;;;;;;;5091554;28;20056;-72
2021/06/11 03:40:49;;;;;;;10.25;5.10;;;;;;;;;;5091356;28;20030;-71
2021/06/11 03:43:16;;;;;;;11.40;4.95;;;;;;;;;;5091834;28;20058;-72
2021/06/11 03:45:43;;;;;;;7.43;4.57;;;;;;;;;;5091397;28;20027;-72
2021/06/11 03:48:10;;;;;;;8.05;4.80;;;;;;;;;;5091266;28;20106;-72
2021/06/11 03:50:36;;;;;;;10.57;5.00;;;;;;;;;;5091537;28;20047;-73
2021/06/11 03:53:04;;;;;;;12.07;5.22;;;;;;;;;;5105838;28;20094;-71
2021/06/11 03:55:31;;;;;;;13.10;4.78;;;;;;;;;;5111669;28;20020;-70
2021/06/11 03:58:17;;;;;;;12.02;5.25;;;;;;;;;;5111529;28;20059;-72
2021/06/11 04:00:44;;;;;;;14.38;5.68;;;;;;;;;;5105325;28;20502;-72
2021/06/11 04:03:10;;;;;;;9.93;5.72;;;;;;;;;;5090686;28;20039;-72
2021/06/11 04:05:36;;;;;;;8.95;4.68;;;;;;;;;;5089841;28;20039;-72
2021/06/11 04:08:06;;;;;;;7.90;4.80;;;;;;;;;;5090653;28;20024;-72
2021/06/11 04:10:38;;;;;;;9.25;4.50;;;;;;;;;;5111414;28;20089;-71
2021/06/11 04:13:13;;;;;;;9.73;4.40;;;;;;;;;;5111140;28;20056;-71
2021/06/11 04:15:40;;;;;;;8.05;4.25;;;;;;;;;;5110770;28;20470;-70
2021/06/11 04:18:09;;;;;;;10.45;4.82;;;;;;;;;;5102340;28;20108;-70
2021/06/11 04:20:35;;;;;;;8.05;5.15;;;;;;;;;;5105323;28;20027;-73
2021/06/11 04:23:03;;;;;;;10.07;5.45;;;;;;;;;;5111065;28;20031;-71
2021/06/11 04:25:33;;;;;;;6.97;4.22;;;;;;;;;;5110896;28;20038;-72
2021/06/11 04:28:00;;;;;;;10.02;5.05;;;;;;;;;;5110729;28;20091;-71
2021/06/11 04:30:26;;;;;;;8.73;4.50;;;;;;;;;;5110681;28;20462;-72
2021/06/11 04:32:53;;;;;;;9.68;4.20;;;;;;;;;;5110712;28;20031;-72
2021/06/11 04:35:22;;;;;;;8.25;3.97;;;;;;;;;;5099651;28;20028;-71
2021/06/11 04:37:49;;;;;;;13.57;4.97;;;;;;;;;;5090052;28;20108;-71
2021/06/11 04:40:15;;;;;;;8.23;4.80;;;;;;;;;;5090112;28;20058;-73
2021/06/11 04:42:41;;;;;;;5.28;3.95;;;;;;;;;;5090111;28;20787;-70
2021/06/11 04:45:07;;;;;;;9.75;4.85;;;;;;;;;;5089765;28;20505;-71
2021/06/11 04:47:34;;;;;;;8.23;4.70;;;;;;;;;;5089924;28;20043;-73
2021/06/11 04:50:00;;;;;;;7.85;4.03;;;;;;;;;;5093172;28;20078;-72
2021/06/11 04:52:26;;;;;;;7.82;4.00;;;;;;;;;;5100486;28;20012;-72
2021/06/11 04:54:52;;;;;;;6.55;4.00;;;;;;;;;;5091628;28;20020;-72
2021/06/11 04:57:18;;;;;;;7.88;3.78;;;;;;;;;;5110180;28;20050;-72
2021/06/11 04:59:44;;;;;;;6.53;4.13;;;;;;;;;;5109912;28;20043;-71
2021/06/11 05:02:10;;;;;;;12.82;4.50;;;;;;;;;;5110383;28;20031;-70
2021/06/11 05:04:37;;;;;;;6.80;4.00;;;;;;;;;;5110181;28;20111;-73
2021/06/11 05:07:03;;;;;;;9.43;3.92;;;;;;;;;;5109985;28;20503;-71
2021/06/11 05:09:29;;;;;;;5.93;4.82;;;;;;;;;;5109208;28;20031;-72
2021/06/11 05:11:56;;;;;;;7.43;3.97;;;;;;;;;;5108441;28;20027;-72
2021/06/11 05:14:22;;;;;;;11.13;4.18;;;;;;;;;;5089674;28;20024;-71
2021/06/11 05:16:48;;;;;;;10.07;4.15;;;;;;;;;;5089128;28;20101;-73
2021/06/11 05:19:14;;;;;;;6.60;3.78;;;;;;;;;;5092908;28;20042;-72
2021/06/11 05:21:40;;;;;;;7.43;3.85;;;;;;;;;;5110004;28;20051;-72
2021/06/11 05:24:07;;;;;;;6.18;3.47;;;;;;;;;;5110089;28;20053;-72
2021/06/11 05:26:33;;;;;;;7.93;3.70;;;;;;;;;;5106489;28;20119;-72
2021/06/11 05:28:59;;;;;;;7.55;4.18;;;;;;;;;;5090826;28;20099;-72
2021/06/11 05:31:25;;;;;;;7.93;3.95;;;;;;;;;;5089303;28;20053;-71
2021/06/11 05:33:51;;;;;;;6.40;3.50;;;;;;;;;;5089371;28;20553;-70
2021/06/11 05:36:17;;;;;;;6.55;3.80;;;;;;;;;;5102767;28;20062;-71
2021/06/11 05:38:43;;;;;;;9.63;4.35;;;;;;;;;;5100034;28;20482;-73
2021/06/11 05:41:09;;;;;;;6.40;3.53;;;;;;;;;;5087902;28;20028;-71
2021/06/11 05:43:36;;;;;;;4.90;3.25;;;;;;;;;;5101768;28;20027;-73
2021/06/11 05:46:02;;;;;;;7.53;4.07;;;;;;;;;;5109449;28;20042;-71
2021/06/11 05:48:28;;;;;;;6.35;3.95;;;;;;;;;;5109562;28;20031;-69
2021/06/11 05:50:55;;;;;;;5.65;3.67;;;;;;;;;;5104737;28;20062;-72
2021/06/11 05:53:22;;;;;;;4.32;3.20;;;;;;;;;;5086531;28;20055;-71
2021/06/11 05:55:52;;;;;;;6.75;3.58;;;;;;;;;;5107870;28;20077;-72
2021/06/11 05:58:18;;;;;;;8.25;4.00;;;;;;;;;;5106324;28;20386;-72
2021/06/11 06:00:44;;;;;;;7.20;3.50;;;;;;;;;;5092883;28;20020;-72
2021/06/11 06:03:10;;;;;;;6.88;3.72;;;;;;;;;;5088048;28;20039;-72
2021/06/11 06:05:36;;;;;;;4.07;3.20;;;;;;;;;;5088423;28;20069;-72
2021/06/11 06:08:03;;;;;;;6.40;3.55;;;;;;;;;;5089025;28;20081;-73
2021/06/11 06:10:29;;;;;;;7.20;4.07;;;;;;;;;;5109394;28;20020;-72
2021/06/11 06:12:55;;;;;;;5.03;3.10;;;;;;;;;;5099216;28;20601;-72
2021/06/11 06:15:21;;;;;;;6.28;3.28;;;;;;;;;;5096967;28;20036;-71
2021/06/11 06:17:47;;;;;;;5.95;3.50;;;;;;;;;;5097117;28;20793;-72
2021/06/11 06:20:14;;;;;;;5.70;3.50;;;;;;;;;;5088569;28;20036;-71
2021/06/11 06:22:40;;;;;;;6.78;3.95;;;;;;;;;;5088940;28;20110;-70
2021/06/11 06:25:07;;;;;;;8.15;3.50;;;;;;;;;;5088791;28;20032;-70
2021/06/11 06:27:33;;;;;;;4.25;2.95;;;;;;;;;;5089847;28;20079;-72
2021/06/11 06:29:59;;;;;;;3.15;2.70;;;;;;;;;;5093129;28;20023;-71
2021/06/11 06:32:29;;;;;;;4.20;2.83;;;;;;;;;;5092943;28;20474;-72
2021/06/11 06:34:55;;;;;;;4.03;2.40;;;;;;;;;;5108372;28;20076;-72
2021/06/11 06:37:21;;;;;;;2.90;2.60;;;;;;;;;;5113321;28;20600;-71
2021/06/11 06:39:47;;;;;;;3.95;2.60;;;;;;;;;;5113414;28;20027;-68
2021/06/11 06:42:13;;;;;;;4.75;2.88;;;;;;;;;;5113357;28;20023;-72
2021/06/11 06:44:40;;;;;;;5.53;2.90;;;;;;;;;;5113045;28;20027;-72
2021/06/11 06:47:06;;;;;;;3.33;2.50;;;;;;;;;;5112950;28;20107;-71
2021/06/11 06:49:33;;;;;;;5.55;2.58;;;;;;;;;;5113121;28;20047;-71
2021/06/11 06:51:59;;;;;;;3.97;2.60;;;;;;;;;;5102562;28;20024;-71
2021/06/11 06:54:25;;;;;;;3.60;2.90;;;;;;;;;;5100077;28;20104;-72
2021/06/11 06:56:51;;;;;;;4.28;2.65;;;;;;;;;;5105828;28;20118;-71
2021/06/11 06:59:20;;;;;;;4.10;2.70;;;;;;;;;;5103943;28;20039;-70
2021/06/11 07:01:46;;;;;;;4.90;2.92;;;;;;;;;;5102924;28;20474;-72
2021/06/11 07:04:13;;;;;;;4.45;3.15;;;;;;;;;;5092219;28;20036;-72
2021/06/11 07:06:39;;;;;;;4.50;3.30;;;;;;;;;;5100777;28;20086;-71
2021/06/11 07:09:07;;;;;;;4.63;3.22;;;;;;;;;;5103272;28;20058;-73
2021/06/11 07:11:33;;;;;;;4.03;2.80;;;;;;;;;;5111550;28;20034;-73
2021/06/11 07:13:59;;;;;;;3.80;2.85;;;;;;;;;;5087240;28;20359;-73
2021/06/11 07:16:25;;;;;;;4.88;3.08;;;;;;;;;;5100643;28;20050;-72
2021/06/11 07:18:51;;;;;;;5.65;3.10;;;;;;;;;;5108352;28;20070;-73
2021/06/11 07:21:17;;;;;;;5.43;3.15;;;;;;;;;;5102556;28;20028;-74
2021/06/11 07:23:43;;;;;;;7.57;3.22;;;;;;;;;;5097298;28;20028;-74
2021/06/11 07:26:09;;;;;;;4.70;3.38;;;;;;;;;;5107942;28;20027;-74
2021/06/11 07:28:37;;;;;;;3.80;2.60;;;;;;;;;;5102421;28;20553;-73
2021/06/11 07:31:04;;;;;;;6.13;3.03;;;;;;;;;;5110363;28;20462;-70
2021/06/11 07:33:30;;;;;;;6.22;3.15;;;;;;;;;;5110431;28;20453;-74
2021/06/11 07:35:57;;;;;;;6.90;3.40;;;;;;;;;;5109015;28;20092;-73
2021/06/11 07:38:24;;;;;;;5.30;3.00;;;;;;;;;;5101893;28;20020;-72
2021/06/11 07:40:53;;;;;;;5.32;3.08;;;;;;;;;;5106743;28;20024;-72
2021/06/11 07:43:20;;;;;;;6.05;3.20;;;;;;;;;;5110219;28;20020;-72
2021/06/11 07:45:46;;;;;;;5.72;3.30;;;;;;;;;;5088900;28;20020;-72
2021/06/11 07:48:12;;;;;;;7.10;3.10;;;;;;;;;;5104940;28;20032;-73
2021/06/11 07:50:38;;;;;;;5.93;3.20;;;;;;;;;;5084172;28;20024;-73
2021/06/11 07:53:05;;;;;;;7.38;3.30;;;;;;;;;;5106132;28;20034;-72
2021/06/11 07:55:31;;;;;;;7.10;3.65;;;;;;;;;;5093421;28;20106;-74
2021/06/11 07:57:59;;;;;;;6.10;3.28;;;;;;;;;;5091656;28;20081;-74
2021/06/11 08:00:25;;;;;;;6.95;3.40;;;;;;;;;;5102240;28;20115;-74
2021/06/11 08:02:55;;;;;;;5.63;3.13;;;;;;;;;;5092076;28;20101;-73
2021/06/11 08:05:21;;;;;;;9.63;4.03;;;;;;;;;;5100428;28;20414;-73
2021/06/11 08:07:47;;;;;;;9.85;3.20;;;;;;;;;;5111680;28;20122;-73
2021/06/11 08:10:13;;;;;;;9.07;3.88;;;;;;;;;;5106809;28;20084;-73
2021/06/11 08:12:39;;;;;;;7.38;3.40;;;;;;;;;;5093217;28;20043;-74
2021/06/11 08:15:06;;;;;;;10.52;3.35;;;;;;;;;;5099390;28;20024;-71
2021/06/11 08:17:32;;;;;;;6.63;3.60;;;;;;;;;;5097195;28;20047;-74
2021/06/11 08:19:58;;;;;;;8.23;3.72;;;;;;;;;;5104450;28;20072;-74
2021/06/11 08:22:24;;;;;;;10.20;4.43;;;;;;;;;;5090716;28;20804;-75
2021/06/11 08:24:50;;;;;;;4.80;2.95;;;;;;;;;;5094523;28;20036;-75
2021/06/11 08:27:16;;;;;;;10.43;3.72;;;;;;;;;;5101992;28;20039;-74
2021/06/11 08:29:43;;;;;;;8.43;3.60;;;;;;;;;;5104926;28;20059;-74
2021/06/11 08:32:09;;;;;;;6.72;3.45;;;;;;;;;;5108659;28;20031;-74
2021/06/11 08:34:39;;;;;;;8.98;3.45;;;;;;;;;;5096951;28;20544;-73
2021/06/11 08:37:07;;;;;;;5.90;3.17;;;;;;;;;;5096697;28;20069;-73
2021/06/11 08:39:33;;;;;;;8.32;3.67;;;;;;;;;;5095623;28;20043;-74
2021/06/11 08:41:59;;;;;;;8.35;4.25;;;;;;;;;;5099269;28;20122;-74
2021/06/11 08:44:26;;;;;;;11.02;3.50;;;;;;;;;;5101690;28;20077;-73
2021/06/11 08:46:53;;;;;;;10.50;3.60;;;;;;;;;;5104907;28;20028;-76
2021/06/11 08:49:19;;;;;;;7.30;3.88;;;;;;;;;;5090870;28;20028;-75
2021/06/11 08:51:46;;;;;;;8.32;3.40;;;;;;;;;;5086295;28;20023;-75
2021/06/11 08:54:12;;;;;;;7.60;3.42;;;;;;;;;;5109242;28;20038;-72
2021/06/11 08:56:38;;;;;;;8.65;3.83;;;;;;;;;;5092862;28;20502;-75
2021/06/11 08:59:04;;;;;;;11.18;3.70;;;;;;;;;;5098281;28;20035;-74
2021/06/11 09:01:31;;;;;;;9.48;3.33;;;;;;;;;;5101204;28;20853;-73
2021/06/11 09:03:58;;;;;;;6.80;3.45;;;;;;;;;;5108691;28;20642;-75
2021/06/11 09:06:24;;;;;;;6.13;3.40;;;;;;;;;;5102661;28;20479;-74
2021/06/11 09:08:52;;;;;;;9.48;3.40;;;;;;;;;;5101315;28;20031;-73
2021/06/11 09:11:19;;;;;;;6.85;3.25;;;;;;;;;;5095269;28;20098;-73
2021/06/11 09:13:48;;;;;;;7.78;3.10;;;;;;;;;;5072851;28;20483;-72
2021/06/11 09:16:18;;;;;;;8.27;3.22;;;;;;;;;;5099163;28;20126;-73
2021/06/11 09:18:44;;;;;;;7.50;3.10;;;;;;;;;;5104411;28;20023;-74
2021/06/11 09:21:28;;;;;;;9.70;3.42;;;;;;;;;;5102585;28;20031;-75
2021/06/11 09:24:24;;;;;;;6.00;3.38;;;;;;;;;;5104440;28;20030;-77
2021/06/11 09:27:04;;;;;;;6.82;3.40;;;;;;;;;;5101047;28;20036;-72
2021/06/11 09:29:32;;;;;;;8.15;3.30;;;;;;;;;;5108569;28;20653;-72
2021/06/11 09:32:15;;;;;;;9.82;3.50;;;;;;;;;;5090597;28;20032;-73
2021/06/11 09:34:42;;;;;;;6.95;3.35;;;;;;;;;;5103935;28;20077;-73
2021/06/11 09:37:10;;;;;;;9.63;3.80;;;;;;;;;;5081759;28;20032;-74
2021/06/11 09:39:40;;;;;;;9.05;4.13;;;;;;;;;;5110526;28;20047;-74
2021/06/11 09:42:08;;;;;;;5.95;3.35;;;;;;;;;;5103300;28;20023;-73
2021/06/11 09:44:34;;;;;;;5.78;3.30;;;;;;;;;;5108051;28;20109;-74
2021/06/11 09:47:00;;;;;;;6.75;3.17;;;;;;;;;;5101853;28;20023;-72
2021/06/11 09:49:28;;;;;;;8.52;4.47;;;;;;;;;;5085833;28;20810;-72
2021/06/11 09:52:05;;;;;;;7.18;3.92;;;;;;;;;;5077011;28;20051;-74
2021/06/11 09:54:31;;;;;;;11.68;5.70;;;;;;;;;;5101594;28;20028;-74
2021/06/11 09:56:57;;;;;;;6.15;3.45;;;;;;;;;;5103384;28;20044;-73
2021/06/11 09:59:42;;;;;;;10.25;3.42;;;;;;;;;;5105139;28;20518;-72
2021/06/11 10:02:19;;;;;;;7.25;3.40;;;;;;;;;;5082938;28;20085;-74
2021/06/11 10:04:45;;;;;;;8.02;3.50;;;;;;;;;;5109001;28;20435;-73
2021/06/11 10:07:13;;;;;;;9.48;4.65;;;;;;;;;;5110146;28;20031;-73
2021/06/11 10:09:39;;;;;;;6.65;3.33;;;;;;;;;;5108743;28;20540;-74
2021/06/11 10:12:06;;;;;;;5.70;3.17;;;;;;;;;;5106584;28;20035;-74
2021/06/11 10:14:32;;;;;;;7.88;3.47;;;;;;;;;;5106224;28;20024;-73
2021/06/11 10:16:58;;;;;;;8.43;3.80;;;;;;;;;;5111951;28;20051;-75
2021/06/11 10:19:25;;;;;;;5.65;3.75;;;;;;;;;;5105272;28;20019;-72
2021/06/11 10:21:52;;;;;;;10.35;3.42;;;;;;;;;;5107305;28;20024;-74
2021/06/11 10:24:20;;;;;;;6.72;4.22;;;;;;;;;;5109437;28;20560;-72
2021/06/11 10:26:46;;;;;;;7.22;3.50;;;;;;;;;;5107244;28;20154;-72
2021/06/11 10:29:17;;;;;;;9.50;4.60;;;;;;;;;;5093974;28;20493;-74
2021/06/11 10:31:43;;;;;;;9.18;3.60;;;;;;;;;;5100864;28;20757;-74
2021/06/11 10:34:09;;;;;;;11.15;3.97;;;;;;;;;;5104277;28;20499;-72
2021/06/11 10:36:38;;;;;;;9.10;3.63;;;;;;;;;;5107384;28;20511;-71
2021/06/11 10:39:10;;;;;;;9.57;4.60;;;;;;;;;;5097405;28;20491;-74
2021/06/11 10:41:55;;;;;;;8.70;5.30;;;;;;;;;;5096826;28;20496;-72
2021/06/11 10:44:30;;;;;;;9.23;3.72;;;;;;;;;;5106300;28;20069;-72
2021/06/11 10:46:56;;;;;;;;;;;;;;;;;;5106280;28;20760;-71
2021/06/11 10:49:22;;;;;;;9.35;4.32;;;;;;;;;;5104070;28;19919;-72
2021/06/11 10:51:50;;;;;;;10.77;5.03;;;;;;;;;;5105206;28;20027;-72
2021/06/11 10:54:22;;;;;;;9.07;4.68;;;;;;;;;;5102999;28;20100;-72
2021/06/11 10:56:57;;;;;;;8.93;3.80;;;;;;;;;;5105960;28;20076;-72
2021/06/11 10:59:23;;;;;;;;;;;;;;;;;;5102095;28;20051;-73
2021/06/11 11:01:52;;;;;;;13.60;4.55;;;;;;;;;;5084545;28;19947;-73
2021/06/11 11:04:35;;;;;;;9.00;4.32;;;;;;;;;;5107043;28;20541;-74
2021/06/11 11:07:20;;;;;;;8.25;3.90;;;;;;;;;;5109734;28;20027;-72
2021/06/11 11:09:53;;;;;;;10.07;5.10;;;;;;;;;;5110533;28;20032;-73
2021/06/11 11:12:30;;;;;;;5.55;3.33;;;;;;;;;;5112680;28;20338;-75
2021/06/11 11:15:00;;;;;;;14.18;5.63;;;;;;;;;;5105064;28;20134;-75
2021/06/11 11:17:27;;;;;;;9.65;4.60;;;;;;;;;;5110891;28;20047;-75
2021/06/11 11:19:53;;;;;;;10.43;3.75;;;;;;;;;;5104971;28;20073;-76
2021/06/11 11:22:23;;;;;;;9.60;3.40;;;;;;;;;;5102889;28;20764;-74
2021/06/11 11:24:49;;;;;;;8.90;3.97;;;;;;;;;;5115465;28;20417;-77
2021/06/11 11:27:15;;;;;;;10.50;3.67;;;;;;;;;;5115804;28;20039;-76
2021/06/11 11:29:41;;;;;;;8.27;4.28;;;;;;;;;;5105482;28;20035;-77
2021/06/11 11:32:08;;;;;;;7.10;3.38;;;;;;;;;;5107590;28;20032;-76
2021/06/11 11:34:34;;;;;;;7.43;3.42;;;;;;;;;;5104740;28;20059;-77
2021/06/11 11:37:00;;;;;;;10.35;3.33;;;;;;;;;;5106783;28;20035;-76
2021/06/11 11:39:26;;;;;;;7.85;3.60;;;;;;;;;;5100278;28;20079;-74
2021/06/11 11:41:55;;;;;;;9.15;3.60;;;;;;;;;;5103969;28;20160;-77
2021/06/11 11:44:21;;;;;;;7.63;3.47;;;;;;;;;;5108084;28;20055;-74
2021/06/11 11:46:47;;;;;;;9.25;5.00;;;;;;;;;;5097379;28;20031;-76
2021/06/11 11:49:13;;;;;;;9.88;3.70;;;;;;;;;;5086430;28;20031;-74
2021/06/11 11:51:39;;;;;;;9.57;3.92;;;;;;;;;;5103718;28;20025;-76
2021/06/11 11:54:05;;;;;;;11.55;3.67;;;;;;;;;;5096279;28;20047;-75
2021/06/11 11:56:32;;;;;;;13.40;4.40;;;;;;;;;;5104111;28;20081;-75
2021/06/11 11:58:58;;;;;;;12.07;3.50;;;;;;;;;;5110418;28;20051;-73
2021/06/11 12:01:24;;;;;;;6.25;3.17;;;;;;;;;;5096722;28;20039;-74
2021/06/11 12:03:50;;;;;;;9.38;3.35;;;;;;;;;;5103597;28;20057;-74
2021/06/11 12:06:16;;;;;;;8.13;3.50;;;;;;;;;;5107048;28;20031;-74
2021/06/11 12:08:42;;;;;;;10.95;3.40;;;;;;;;;;5092848;28;20028;-75
2021/06/11 12:11:08;;;;;;;9.23;3.50;;;;;;;;;;5100968;28;20031;-74
2021/06/11 12:13:34;;;;;;;7.07;3.33;;;;;;;;;;5110345;28;20144;-75
2021/06/11 12:16:02;;;;;;;8.63;3.38;;;;;;;;;;5110786;28;20765;-75
2021/06/11 12:18:29;;;;;;;9.65;3.92;;;;;;;;;;5111105;28;20026;-74
2021/06/11 12:20:55;;;;;;;8.82;3.42;;;;;;;;;;5111089;28;20048;-73
2021/06/11 12:23:21;;;;;;;7.68;3.25;;;;;;;;;;5100072;28;20020;-73
2021/06/11 12:25:47;;;;;;;10.75;4.32;;;;;;;;;;5089816;28;20665;-74
2021/06/11 12:28:13;;;;;;;8.23;3.00;;;;;;;;;;5090435;28;20035;-74
2021/06/11 12:30:39;;;;;;;9.63;4.10;;;;;;;;;;5094120;28;20026;-74
2021/06/11 12:33:05;;;;;;;4.85;2.85;;;;;;;;;;5099269;28;20028;-71
2021/06/11 12:35:31;;;;;;;8.07;3.35;;;;;;;;;;5099292;28;20413;-72
2021/06/11 12:37:59;;;;;;;10.45;3.00;;;;;;;;;;5092228;28;20081;-73
2021/06/11 12:40:26;;;;;;;8.50;2.85;;;;;;;;;;5084850;28;20023;-71
2021/06/11 12:42:53;;;;;;;7.75;3.03;;;;;;;;;;5110895;28;20081;-75
2021/06/11 12:45:20;;;;;;;11.02;4.13;;;;;;;;;;5103607;28;20028;-75
2021/06/11 12:47:46;;;;;;;6.93;3.72;;;;;;;;;;5100174;28;20047;-74
2021/06/11 12:50:12;;;;;;;6.60;3.03;;;;;;;;;;5101769;28;20024;-73
2021/06/11 12:52:38;;;;;;;11.68;3.58;;;;;;;;;;5105223;28;20028;-77
2021/06/11 12:55:05;;;;;;;9.35;3.35;;;;;;;;;;5084787;28;20534;-76
2021/06/11 12:57:31;;;;;;;10.23;3.10;;;;;;;;;;5105342;28;20371;-74
2021/06/11 12:59:57;;;;;;;6.22;3.30;;;;;;;;;;5107455;28;20366;-75
2021/06/11 13:02:24;;;;;;;11.55;3.47;;;;;;;;;;5106352;28;20015;-76
2021/06/11 13:04:50;;;;;;;9.90;3.08;;;;;;;;;;5097962;28;20035;-72
2021/06/11 13:07:16;;;;;;;5.00;2.67;;;;;;;;;;5095998;28;20031;-77
2021/06/11 13:09:42;;;;;;;8.85;2.90;;;;;;;;;;5086780;28;20038;-76
2021/06/11 13:12:08;;;;;;;6.22;2.55;;;;;;;;;;5100934;28;20130;-71
2021/06/11 13:14:35;;;;;;;4.00;2.95;;;;;;;;;;5099639;28;20099;-78
2021/06/11 13:17:01;;;;;;;5.85;2.42;;;;;;;;;;5099281;28;20635;-73
2021/06/11 13:19:27;;;;;;;5.65;2.63;;;;;;;;;;5100414;28;20035;-74
2021/06/11 13:21:53;;;;;;;6.28;2.30;;;;;;;;;;5106288;28;20036;-74
2021/06/11 13:24:19;;;;;;;8.77;3.33;;;;;;;;;;5100630;28;20028;-74
2021/06/11 13:26:45;;;;;;;5.93;3.05;;;;;;;;;;5106658;28;20038;-75
2021/06/11 13:29:11;;;;;;;4.47;2.25;;;;;;;;;;5107000;28;20030;-76
2021/06/11 13:31:38;;;;;;;7.03;2.50;;;;;;;;;;5099403;28;20028;-75
2021/06/11 13:34:04;;;;;;;6.93;2.75;;;;;;;;;;5109617;28;20073;-75
2021/06/11 13:36:31;;;;;;;11.27;2.90;;;;;;;;;;5104992;28;20043;-76
2021/06/11 13:38:57;;;;;;;7.10;2.90;;;;;;;;;;5105404;28;20031;-73
2021/06/11 13:41:26;;;;;;;5.20;2.50;;;;;;;;;;5101757;28;20453;-74
2021/06/11 13:43:53;;;;;;;6.15;2.35;;;;;;;;;;5105261;28;20035;-75
2021/06/11 13:46:19;;;;;;;5.30;2.10;;;;;;;;;;5096441;28;20024;-77
2021/06/11 13:48:45;;;;;;;4.43;1.95;;;;;;;;;;5108361;28;20723;-78
2021/06/11 13:51:12;;;;;;;3.42;1.98;;;;;;;;;;5111873;28;20093;-77
2021/06/11 13:53:38;;;;;;;6.32;2.53;;;;;;;;;;5109670;28;20031;-77
2021/06/11 13:56:05;;;;;;;6.18;2.28;;;;;;;;;;5103973;28;20024;-74
2021/06/11 13:58:31;;;;;;;3.70;1.98;;;;;;;;;;5097294;28;20089;-73
2021/06/11 14:00:57;;;;;;;7.20;2.45;;;;;;;;;;5096586;28;20037;-74
2021/06/11 14:03:23;;;;;;;6.15;2.58;;;;;;;;;;5104970;28;20051;-74
2021/06/11 14:05:49;;;;;;;3.28;2.03;;;;;;;;;;5101510;28;20029;-72
2021/06/11 14:08:15;;;;;;;5.70;2.53;;;;;;;;;;5102280;28;20406;-72
2021/06/11 14:10:42;;;;;;;5.80;2.10;;;;;;;;;;5106808;28;20028;-77
2021/06/11 14:13:08;;;;;;;2.38;1.92;;;;;;;;;;5102430;28;20032;-73
2021/06/11 14:15:35;;;;;;;3.38;1.90;;;;;;;;;;5110770;28;20059;-72
2021/06/11 14:18:01;;;;;;;4.20;2.10;;;;;;;;;;5110841;28;20141;-74
2021/06/11 14:20:28;;;;;;;5.05;2.20;;;;;;;;;;5102802;28;20159;-75
2021/06/11 14:22:54;;;;;;;4.30;2.10;;;;;;;;;;5107419;28;20031;-74
2021/06/11 14:25:20;;;;;;;3.33;1.75;;;;;;;;;;5106111;28;20023;-77
2021/06/11 14:27:47;;;;;;;3.63;1.90;;;;;;;;;;5106092;28;20111;-75
2021/06/11 14:30:14;;;;;;;3.15;1.90;;;;;;;;;;5111425;28;20170;-76
2021/06/11 14:32:40;;;;;;;4.53;2.40;;;;;;;;;;5095536;28;20024;-73
2021/06/11 14:35:06;;;;;;;6.82;2.20;;;;;;;;;;5103874;28;20019;-74
2021/06/11 14:37:33;;;;;;;4.82;1.88;;;;;;;;;;5103752;28;20393;-73
2021/06/11 14:40:00;;;;;;;3.67;2.20;;;;;;;;;;5097563;28;20039;-75
2021/06/11 14:42:26;;;;;;;5.97;2.95;;;;;;;;;;5107510;28;20030;-73